createdAt,value
2022-11-27T00:01:27.343Z,6.63
2022-11-27T00:03:55.329Z,7.50
2022-11-27T00:06:25.845Z,9.40
2022-11-27T00:08:53.109Z,8.35
2022-11-27T00:11:24.562Z,7.63
2022-11-27T00:13:52.411Z,7.80
2022-11-27T00:16:20.770Z,7.53
2022-11-27T00:18:48.454Z,7.22
2022-11-27T00:21:24.311Z,8.82
2022-11-27T00:23:53.022Z,8.07
2022-11-27T00:26:20.186Z,8.48
2022-11-27T00:28:47.416Z,7.80
2022-11-27T00:31:28.697Z,8.75
2022-11-27T00:33:56.833Z,8.13
2022-11-27T00:36:23.860Z,8.43
2022-11-27T00:38:51.196Z,8.18
2022-11-27T00:41:20.763Z,8.73
2022-11-27T00:43:47.935Z,10.38
2022-11-27T00:46:16.653Z,9.65
2022-11-27T00:48:44.522Z,8.43
2022-11-27T00:51:14.720Z,8.98
2022-11-27T00:53:42.265Z,9.68
2022-11-27T00:56:10.481Z,8.38
2022-11-27T00:58:37.380Z,9.15
2022-11-27T01:01:07.623Z,7.95
2022-11-27T01:03:35.388Z,8.18
2022-11-27T01:06:06.662Z,7.63
2022-11-27T01:08:34.720Z,9.20
2022-11-27T01:11:02.401Z,7.97
2022-11-27T01:13:32.509Z,9.10
2022-11-27T01:16:11.843Z,9.32
2022-11-27T01:18:41.241Z,7.63
2022-11-27T01:21:09.120Z,8.18
2022-11-27T01:23:36.203Z,8.48
2022-11-27T01:26:05.687Z,8.23
2022-11-27T01:28:33.652Z,7.88
2022-11-27T01:31:05.726Z,8.07
2022-11-27T01:33:33.265Z,9.15
2022-11-27T01:36:02.546Z,8.18
2022-11-27T01:38:31.074Z,9.48
2022-11-27T01:41:04.313Z,9.27
2022-11-27T01:43:47.961Z,9.10
2022-11-27T01:46:29.654Z,9.82
2022-11-27T01:49:11.513Z,9.20
2022-11-27T01:51:44.654Z,8.05
2022-11-27T01:54:12.128Z,9.20
2022-11-27T01:56:41.946Z,8.75
2022-11-27T01:59:08.888Z,9.60
2022-11-27T02:01:35.795Z,9.15
2022-11-27T02:04:03.300Z,9.32
2022-11-27T02:06:30.244Z,10.27
2022-11-27T02:08:57.483Z,8.90
2022-11-27T02:11:29.906Z,8.90
2022-11-27T02:14:11.238Z,9.00
2022-11-27T02:16:53.124Z,8.50
2022-11-27T02:19:28.122Z,9.52
2022-11-27T02:22:05.396Z,9.32
2022-11-27T02:24:50.761Z,9.65
2022-11-27T02:27:42.394Z,8.63
2022-11-27T02:30:10.381Z,9.98
2022-11-27T02:32:43.825Z,8.25
2022-11-27T02:35:37.512Z,9.10
2022-11-27T02:38:13.489Z,8.73
2022-11-27T02:40:45.648Z,8.80
2022-11-27T02:43:18.376Z,9.35
2022-11-27T02:45:48.959Z,9.48
2022-11-27T02:48:19.772Z,9.43
2022-11-27T02:50:48.699Z,8.95
2022-11-27T02:53:21.259Z,9.77
2022-11-27T02:55:50.641Z,8.93
2022-11-27T02:58:21.920Z,9.00
2022-11-27T03:00:50.683Z,9.40
2022-11-27T03:03:23.527Z,8.85
2022-11-27T03:05:54.206Z,8.88
2022-11-27T03:08:32.405Z,8.20
2022-11-27T03:11:25.756Z,8.07
2022-11-27T03:13:58.618Z,8.10
2022-11-27T03:17:05.170Z,7.47
2022-11-27T03:19:44.203Z,8.40
2022-11-27T03:22:11.863Z,7.88
2022-11-27T03:24:39.410Z,7.68
2022-11-27T03:27:06.974Z,6.40
2022-11-27T03:29:38.669Z,7.90
2022-11-27T03:32:06.142Z,8.43
2022-11-27T03:34:34.165Z,8.55
2022-11-27T03:37:01.533Z,7.35
2022-11-27T03:39:29.482Z,7.07
2022-11-27T03:42:17.865Z,6.57
2022-11-27T03:45:12.267Z,6.90
2022-11-27T03:47:57.983Z,8.63
2022-11-27T03:50:30.831Z,8.23
2022-11-27T03:53:07.980Z,7.05
2022-11-27T03:56:09.605Z,6.95
2022-11-27T03:58:43.675Z,7.25
2022-11-27T04:01:14.568Z,6.75
2022-11-27T04:03:41.681Z,7.45
2022-11-27T04:06:08.714Z,6.97
2022-11-27T04:08:35.585Z,7.43
2022-11-27T04:11:02.569Z,7.53
2022-11-27T04:13:29.396Z,7.47
2022-11-27T04:15:56.322Z,7.32
2022-11-27T04:18:23.237Z,7.75
2022-11-27T04:20:50.184Z,7.47
2022-11-27T04:23:17.065Z,7.53
2022-11-27T04:25:44.081Z,6.00
2022-11-27T04:28:11.368Z,6.82
2022-11-27T04:30:38.231Z,8.43
2022-11-27T04:33:05.191Z,6.85
2022-11-27T04:35:32.092Z,6.47
2022-11-27T04:37:58.989Z,7.57
2022-11-27T04:40:25.900Z,5.80
2022-11-27T04:42:52.887Z,8.07
2022-11-27T04:45:20.004Z,6.82
2022-11-27T04:47:46.872Z,7.90
2022-11-27T04:50:13.755Z,8.70
2022-11-27T04:52:40.650Z,6.97
2022-11-27T04:55:08.125Z,6.65
2022-11-27T04:57:35.063Z,6.78
2022-11-27T05:00:02.130Z,6.22
2022-11-27T05:02:29.238Z,7.25
2022-11-27T05:04:56.224Z,6.18
2022-11-27T05:07:23.469Z,6.57
2022-11-27T05:09:51.203Z,7.30
2022-11-27T05:12:18.079Z,7.75
2022-11-27T05:14:44.926Z,8.73
2022-11-27T05:17:11.960Z,6.30
2022-11-27T05:19:38.944Z,6.85
2022-11-27T05:22:05.925Z,8.20
2022-11-27T05:24:32.932Z,7.65
2022-11-27T05:26:59.821Z,5.53
2022-11-27T05:29:27.127Z,7.07
2022-11-27T05:31:54.137Z,7.85
2022-11-27T05:34:21.364Z,7.10
2022-11-27T05:36:48.586Z,9.52
2022-11-27T05:39:15.522Z,8.43
2022-11-27T05:41:43.526Z,7.22
2022-11-27T05:44:14.693Z,7.60
2022-11-27T05:46:43.797Z,7.45
2022-11-27T05:49:15.965Z,8.07
2022-11-27T05:51:49.364Z,8.52
2022-11-27T05:54:17.954Z,10.60
2022-11-27T05:56:44.989Z,8.88
2022-11-27T05:59:12.785Z,7.63
2022-11-27T06:01:39.822Z,9.32
2022-11-27T06:04:06.762Z,10.18
2022-11-27T06:06:33.684Z,11.35
2022-11-27T06:09:00.959Z,9.23
2022-11-27T06:11:27.976Z,11.30
2022-11-27T06:13:54.909Z,10.13
2022-11-27T06:16:24.069Z,9.68
2022-11-27T06:18:53.314Z,9.70
2022-11-27T06:21:21.740Z,10.07
2022-11-27T06:23:49.151Z,10.35
2022-11-27T06:26:24.440Z,8.73
2022-11-27T06:28:51.878Z,9.85
2022-11-27T06:31:21.641Z,10.07
2022-11-27T06:33:50.296Z,10.48
2022-11-27T06:36:18.360Z,10.15
2022-11-27T06:38:46.466Z,9.93
2022-11-27T06:41:16.217Z,9.98
2022-11-27T06:43:43.698Z,10.77
2022-11-27T06:46:15.543Z,9.88
2022-11-27T06:48:44.212Z,8.95
2022-11-27T06:51:14.217Z,9.90
2022-11-27T06:53:41.122Z,9.30
2022-11-27T06:56:10.620Z,8.65
2022-11-27T06:58:38.428Z,9.55
2022-11-27T07:01:12.920Z,8.35
2022-11-27T07:03:40.050Z,9.50
2022-11-27T07:06:09.121Z,10.02
2022-11-27T07:08:36.697Z,9.43
2022-11-27T07:11:06.327Z,9.23
2022-11-27T07:13:33.697Z,8.88
2022-11-27T07:16:06.118Z,9.07
2022-11-27T07:18:39.545Z,8.48
2022-11-27T07:21:06.701Z,8.77
2022-11-27T07:23:33.711Z,9.25
2022-11-27T07:26:09.371Z,8.55
2022-11-27T07:28:36.765Z,7.50
2022-11-27T07:31:04.014Z,7.60
2022-11-27T07:33:31.705Z,7.72
2022-11-27T07:36:00.765Z,8.45
2022-11-27T07:38:28.012Z,7.68
2022-11-27T07:40:55.094Z,7.10
2022-11-27T07:43:22.081Z,8.05
2022-11-27T07:45:49.117Z,6.35
2022-11-27T07:48:16.117Z,6.45
2022-11-27T07:50:42.972Z,6.70
2022-11-27T07:53:10.071Z,5.85
2022-11-27T07:55:40.710Z,6.30
2022-11-27T07:58:08.479Z,6.43
2022-11-27T08:00:36.141Z,5.80
2022-11-27T08:03:03.731Z,6.03
2022-11-27T08:05:33.521Z,5.95
2022-11-27T08:08:01.581Z,5.38
2022-11-27T08:10:28.562Z,5.35
2022-11-27T08:12:55.391Z,5.75
2022-11-27T08:15:22.295Z,5.03
2022-11-27T08:17:49.163Z,5.57
2022-11-27T08:20:16.291Z,5.78
2022-11-27T08:22:43.213Z,5.43
2022-11-27T08:25:10.176Z,4.80
2022-11-27T08:27:37.085Z,4.85
2022-11-27T08:30:05.268Z,4.75
2022-11-27T08:32:32.615Z,4.35
2022-11-27T08:34:59.597Z,4.38
2022-11-27T08:37:26.531Z,4.13
2022-11-27T08:39:53.575Z,4.45
2022-11-27T08:42:20.565Z,5.13
2022-11-27T08:44:47.459Z,5.05
2022-11-27T08:47:15.667Z,6.30
2022-11-27T08:49:46.304Z,5.50
2022-11-27T08:52:13.779Z,5.25
2022-11-27T08:54:40.886Z,5.80
2022-11-27T08:57:07.968Z,5.15
2022-11-27T08:59:34.903Z,4.90
2022-11-27T09:02:01.805Z,5.18
2022-11-27T09:04:29.177Z,5.05
2022-11-27T09:06:58.757Z,5.30
2022-11-27T09:09:25.896Z,5.03
2022-11-27T09:11:55.176Z,5.40
2022-11-27T09:14:22.153Z,5.10
2022-11-27T09:16:49.298Z,4.93
2022-11-27T09:19:17.257Z,4.85
2022-11-27T09:21:44.281Z,4.75
2022-11-27T09:24:11.152Z,4.30
2022-11-27T09:26:39.284Z,4.53
2022-11-27T09:29:06.500Z,5.13
2022-11-27T09:31:33.474Z,4.82
2022-11-27T09:34:00.366Z,5.43
2022-11-27T09:36:27.449Z,4.85
2022-11-27T09:38:54.716Z,4.65
2022-11-27T09:41:42.373Z,4.47
2022-11-27T09:44:24.070Z,4.05
2022-11-27T10:17:21.632Z,3.22
2022-11-27T10:19:53.310Z,2.80
2022-11-27T10:22:32.510Z,2.72
2022-11-27T10:25:25.588Z,2.67
2022-11-27T10:28:10.394Z,2.33
2022-11-27T10:30:43.318Z,2.13
2022-11-27T10:33:18.041Z,2.85
2022-11-27T10:35:48.227Z,2.17
2022-11-27T10:38:22.471Z,3.08
2022-11-27T10:41:09.788Z,2.30
2022-11-27T10:43:39.112Z,2.00
2022-11-27T10:46:28.039Z,2.40
2022-11-27T10:48:54.989Z,2.90
2022-11-27T10:51:30.130Z,2.10
2022-11-27T10:53:59.483Z,3.13
2022-11-27T10:56:38.006Z,2.53
2022-11-27T10:59:32.831Z,3.08
2022-11-27T11:02:03.487Z,2.85
2022-11-27T11:04:38.033Z,2.50
2022-11-27T11:07:24.412Z,3.03
2022-11-27T11:09:52.326Z,3.20
2022-11-27T11:12:21.852Z,3.40
2022-11-27T11:14:53.044Z,3.92
2022-11-27T11:17:31.373Z,3.55
2022-11-27T11:19:58.428Z,3.10
2022-11-27T11:22:25.456Z,3.72
2022-11-27T11:24:53.799Z,3.50
2022-11-27T11:27:27.333Z,2.65
2022-11-27T11:30:00.108Z,3.08
2022-11-27T11:32:31.219Z,3.25
2022-11-27T11:35:03.065Z,3.53
2022-11-27T11:37:33.639Z,3.85
2022-11-27T11:40:20.560Z,3.83
2022-11-27T11:43:01.773Z,4.38
2022-11-27T11:45:32.820Z,3.53
2022-11-27T11:48:26.970Z,3.42
2022-11-27T11:51:08.439Z,3.33
2022-11-27T11:53:58.449Z,3.38
2022-11-27T11:56:33.143Z,3.35
2022-11-27T11:59:00.052Z,3.78
2022-11-27T12:01:43.706Z,3.38
2022-11-27T12:04:13.785Z,4.60
2022-11-27T12:07:11.466Z,3.50
2022-11-27T12:12:30.580Z,3.72
2022-11-27T12:15:22.714Z,3.15
2022-11-27T12:18:01.249Z,3.05
2022-11-27T12:20:53.931Z,3.80
2022-11-27T12:23:35.901Z,3.33
2022-11-27T12:26:11.876Z,3.90
2022-11-27T12:29:27.855Z,3.13
2022-11-27T12:32:08.639Z,3.90
2022-11-27T12:34:51.736Z,3.75
2022-11-27T12:37:40.889Z,3.70
2022-11-27T12:40:35.616Z,4.28
2022-11-27T12:43:28.336Z,3.88
2022-11-27T12:46:15.213Z,4.50
2022-11-27T12:49:13.668Z,4.70
2022-11-27T12:51:43.271Z,3.92
2022-11-27T12:54:22.644Z,4.50
2022-11-27T12:56:57.972Z,3.13
2022-11-27T12:59:34.872Z,3.58
2022-11-27T13:02:18.704Z,4.00
2022-11-27T13:04:56.889Z,3.72
2022-11-27T13:07:47.894Z,4.18
2022-11-27T13:10:26.250Z,4.85
2022-11-27T13:12:56.298Z,3.60
2022-11-27T13:15:29.557Z,4.30
2022-11-27T13:18:41.500Z,3.55
2022-11-27T13:21:15.899Z,4.00
2022-11-27T13:23:43.145Z,3.90
2022-11-27T13:26:23.340Z,3.83
2022-11-27T13:28:58.573Z,4.68
2022-11-27T13:31:31.881Z,4.03
2022-11-27T13:34:03.416Z,4.93
2022-11-27T13:36:39.892Z,3.90
2022-11-27T13:39:07.529Z,3.55
2022-11-27T13:41:40.351Z,4.35
2022-11-27T13:44:25.458Z,3.97
2022-11-27T13:46:55.639Z,3.47
2022-11-27T13:49:30.643Z,4.10
2022-11-27T13:52:17.951Z,3.72
2022-11-27T13:55:02.045Z,4.18
2022-11-27T13:57:30.396Z,3.63
2022-11-27T14:00:04.160Z,4.38
2022-11-27T14:02:47.203Z,4.03
2022-11-27T14:05:17.570Z,4.63
2022-11-27T14:07:48.077Z,4.57
2022-11-27T14:10:16.313Z,4.20
2022-11-27T14:12:54.389Z,4.38
2022-11-27T14:15:24.636Z,4.55
2022-11-27T14:18:03.757Z,5.50
2022-11-27T14:20:33.166Z,4.13
2022-11-27T14:23:11.645Z,4.25
2022-11-27T14:25:40.857Z,4.10
2022-11-27T14:28:21.739Z,5.50
2022-11-27T14:30:51.451Z,4.40
2022-11-27T14:33:28.366Z,4.45
2022-11-27T14:35:57.978Z,4.18
2022-11-27T14:38:27.159Z,4.20
2022-11-27T14:41:06.803Z,4.05
2022-11-27T14:43:33.777Z,4.10
2022-11-27T14:46:01.973Z,4.00
2022-11-27T14:48:47.642Z,4.07
2022-11-27T14:51:18.132Z,3.83
2022-11-27T14:53:52.022Z,4.63
2022-11-27T14:56:19.312Z,4.45
2022-11-27T14:58:53.397Z,5.22
2022-11-27T15:01:27.073Z,4.78
2022-11-27T15:04:06.122Z,4.85
2022-11-27T15:06:46.585Z,5.72
2022-11-27T15:09:31.773Z,4.43
2022-11-27T15:12:18.261Z,4.93
2022-11-27T15:14:52.051Z,5.90
2022-11-27T15:17:26.538Z,5.65
2022-11-27T15:19:55.674Z,6.15
2022-11-27T15:22:23.454Z,6.53
2022-11-27T15:25:01.266Z,6.60
2022-11-27T15:27:31.630Z,6.88
2022-11-27T15:30:18.839Z,7.00
2022-11-27T15:35:24.534Z,7.70
2022-11-27T15:37:51.952Z,8.45
2022-11-27T15:40:36.103Z,8.65
2022-11-27T15:43:10.597Z,8.82
2022-11-27T15:45:38.018Z,7.72
2022-11-27T15:48:05.067Z,8.73
2022-11-27T15:50:32.280Z,8.75
2022-11-27T15:53:01.090Z,8.40
2022-11-27T15:55:28.084Z,9.50
2022-11-27T15:57:55.066Z,9.00
2022-11-27T16:00:22.262Z,8.80
2022-11-27T16:02:49.291Z,8.07
2022-11-27T16:05:16.368Z,9.70
2022-11-27T16:07:43.343Z,9.90
2022-11-27T16:10:11.345Z,10.07
2022-11-27T16:12:39.189Z,9.73
2022-11-27T16:15:07.639Z,9.82
2022-11-27T16:17:35.196Z,10.82
2022-11-27T16:20:02.206Z,9.65
2022-11-27T16:22:29.130Z,9.80
2022-11-27T16:24:56.388Z,9.90
2022-11-27T16:27:23.426Z,10.50
2022-11-27T16:29:50.455Z,10.43
2022-11-27T16:32:17.468Z,10.60
2022-11-27T16:34:44.390Z,10.50
2022-11-27T16:37:18.079Z,10.88
2022-11-27T16:39:45.494Z,10.63
2022-11-27T16:42:13.045Z,11.18
2022-11-27T16:44:40.054Z,11.18
2022-11-27T16:47:07.332Z,11.18
2022-11-27T16:49:34.641Z,11.48
2022-11-27T16:52:02.106Z,11.63
2022-11-27T16:54:29.229Z,10.93
2022-11-27T16:56:56.649Z,10.55
2022-11-27T16:59:23.765Z,11.38
2022-11-27T17:01:50.672Z,11.93
2022-11-27T17:04:20.042Z,11.75
2022-11-27T17:06:48.642Z,11.63
2022-11-27T17:09:16.112Z,10.88
2022-11-27T17:11:45.655Z,12.00
2022-11-27T17:14:12.651Z,12.45
2022-11-27T17:16:41.676Z,12.15
2022-11-27T17:19:14.236Z,12.27
2022-11-27T17:21:42.081Z,13.70
2022-11-27T17:24:16.045Z,13.93
2022-11-27T17:26:46.157Z,12.85
2022-11-27T17:29:15.450Z,13.55
2022-11-27T17:31:42.822Z,13.27
2022-11-27T17:34:12.761Z,13.02
2022-11-27T17:36:42.229Z,13.75
2022-11-27T17:39:12.397Z,12.88
2022-11-27T17:41:40.766Z,12.20
2022-11-27T17:44:07.882Z,13.63
2022-11-27T17:46:36.391Z,14.10
2022-11-27T17:49:06.097Z,13.52
2022-11-27T17:51:35.259Z,12.70
2022-11-27T17:54:03.490Z,12.75
2022-11-27T17:56:33.300Z,13.77
2022-11-27T17:59:00.999Z,14.30
2022-11-27T18:01:30.264Z,12.73
2022-11-27T18:04:04.131Z,13.07
2022-11-27T18:06:32.605Z,13.27
2022-11-27T18:09:00.397Z,12.27
2022-11-27T18:11:30.092Z,11.75
2022-11-27T18:13:59.377Z,12.45
2022-11-27T18:16:34.200Z,12.45
2022-11-27T18:19:08.284Z,13.18
2022-11-27T18:21:36.530Z,11.48
2022-11-27T18:27:09.853Z,13.02
2022-11-27T18:29:39.751Z,12.85
2022-11-27T18:32:06.993Z,12.10
2022-11-27T18:34:34.352Z,11.68
2022-11-27T18:37:01.754Z,12.00
2022-11-27T18:39:28.952Z,10.98
2022-11-27T18:41:55.965Z,11.10
2022-11-27T18:44:23.038Z,11.85
2022-11-27T18:46:50.861Z,11.20
2022-11-27T18:49:18.522Z,11.70
2022-11-27T18:51:46.476Z,11.68
2022-11-27T18:54:13.468Z,11.02
2022-11-27T18:56:40.532Z,10.05
2022-11-27T18:59:09.066Z,11.38
2022-11-27T19:01:42.357Z,10.38
2022-11-27T19:04:11.338Z,10.75
2022-11-27T19:06:39.629Z,10.02
2022-11-27T19:09:06.855Z,11.30
2022-11-27T19:11:35.224Z,10.32
2022-11-27T19:14:04.077Z,10.43
2022-11-27T19:16:36.592Z,10.00
2022-11-27T19:19:05.031Z,9.98
2022-11-27T19:21:33.789Z,10.27
2022-11-27T19:24:03.442Z,10.07
2022-11-27T19:26:32.723Z,11.00
2022-11-27T19:29:02.733Z,9.60
2022-11-27T19:31:32.186Z,9.68
2022-11-27T19:34:02.288Z,9.55
2022-11-27T19:36:31.429Z,9.98
2022-11-27T19:39:01.739Z,10.13
2022-11-27T19:41:30.911Z,9.15
2022-11-27T19:44:12.885Z,10.27
2022-11-27T19:46:41.127Z,9.80
2022-11-27T19:49:13.622Z,9.70
2022-11-27T19:51:41.221Z,8.93
2022-11-27T19:54:12.725Z,9.63
2022-11-27T19:56:42.584Z,9.40
2022-11-27T19:59:10.857Z,9.02
2022-11-27T20:01:40.518Z,9.48
2022-11-27T20:04:11.157Z,9.90
2022-11-27T20:06:39.128Z,8.95
2022-11-27T20:09:06.965Z,9.52
2022-11-27T20:11:35.765Z,9.73
2022-11-27T20:14:05.632Z,10.10
2022-11-27T20:16:34.783Z,10.07
2022-11-27T20:19:05.718Z,9.27
2022-11-27T20:21:34.898Z,10.02
2022-11-27T20:24:04.166Z,9.18
2022-11-27T20:26:31.189Z,9.35
2022-11-27T20:28:59.540Z,9.18
2022-11-27T20:31:29.641Z,10.35
2022-11-27T20:34:00.859Z,9.40
2022-11-27T20:36:30.238Z,9.90
2022-11-27T20:39:00.052Z,9.40
2022-11-27T20:41:28.913Z,9.60
2022-11-27T20:43:58.942Z,8.57
2022-11-27T20:46:26.229Z,9.63
2022-11-27T20:48:54.384Z,8.75
2022-11-27T20:51:24.282Z,9.20
2022-11-27T20:53:53.679Z,9.27
2022-11-27T20:56:21.143Z,10.23
2022-11-27T20:58:48.395Z,10.10
2022-11-27T21:01:18.025Z,9.75
2022-11-27T21:03:46.293Z,9.55
2022-11-27T21:06:15.050Z,8.43
2022-11-27T21:08:42.739Z,9.70
2022-11-27T21:11:25.227Z,8.95
2022-11-27T21:13:56.114Z,8.95
2022-11-27T21:16:25.173Z,9.38
2022-11-27T21:18:53.812Z,9.43
2022-11-27T21:21:21.466Z,8.70
2022-11-27T21:23:49.245Z,8.98
2022-11-27T21:26:18.665Z,9.00
2022-11-27T21:28:46.555Z,9.02
2022-11-27T21:31:19.481Z,8.65
2022-11-27T21:33:52.003Z,8.65
2022-11-27T21:36:20.494Z,8.60
2022-11-27T21:38:47.601Z,9.05
2022-11-27T21:41:17.159Z,8.48
2022-11-27T21:43:45.669Z,8.93
2022-11-27T21:46:20.138Z,8.75
2022-11-27T21:48:49.606Z,9.00
2022-11-27T21:51:17.511Z,8.05
2022-11-27T21:53:49.162Z,9.68
2022-11-27T21:56:18.328Z,8.18
2022-11-27T21:58:45.900Z,8.63
2022-11-27T22:01:19.265Z,9.00
2022-11-27T22:03:51.506Z,7.95
2022-11-27T22:06:19.239Z,8.35
2022-11-27T22:08:49.309Z,7.93
2022-11-27T22:11:19.668Z,8.60
2022-11-27T22:13:47.083Z,8.07
2022-11-27T22:16:19.889Z,7.80
2022-11-27T22:18:48.195Z,7.80
2022-11-27T22:21:16.388Z,7.90
2022-11-27T22:23:44.004Z,8.02
2022-11-27T22:26:16.132Z,8.80
2022-11-27T22:28:43.642Z,6.78
2022-11-27T22:31:31.279Z,7.60
2022-11-27T22:33:58.849Z,7.45
2022-11-27T22:36:32.058Z,7.45
2022-11-27T22:39:02.209Z,6.57
2022-11-27T22:41:32.276Z,6.80
2022-11-27T22:44:00.426Z,8.10
2022-11-27T22:46:34.262Z,6.78
2022-11-27T22:49:05.558Z,7.45
2022-11-27T22:51:34.543Z,7.32
2022-11-27T22:54:02.831Z,7.82
2022-11-27T22:56:30.063Z,8.45
2022-11-27T22:59:30.051Z,8.00
2022-11-27T23:01:48.626Z,7.60
2022-11-27T23:04:16.593Z,8.27
2022-11-27T23:06:48.202Z,7.72
2022-11-27T23:09:17.849Z,7.72
2022-11-27T23:11:45.525Z,7.90
2022-11-27T23:14:12.448Z,7.88
2022-11-27T23:16:39.718Z,6.95
2022-11-27T23:19:07.058Z,6.88
2022-11-27T23:21:37.628Z,6.38
2022-11-27T23:24:05.684Z,7.47
2022-11-27T23:26:33.074Z,5.88
2022-11-27T23:29:00.075Z,6.50
2022-11-27T23:31:31.504Z,6.25
2022-11-27T23:34:01.889Z,6.03
2022-11-27T23:36:30.040Z,6.40
2022-11-27T23:38:58.898Z,5.38
2022-11-27T23:41:25.829Z,5.07
2022-11-27T23:43:53.906Z,4.65
2022-11-27T23:46:23.016Z,4.90
2022-11-27T23:48:50.009Z,5.45
2022-11-27T23:51:22.261Z,5.05
2022-11-27T23:53:50.469Z,4.93
2022-11-27T23:56:26.494Z,4.72
2022-11-27T23:58:55.501Z,5.82
